High wind

Not for real navigation. The accuracy of this data is not assured See disclaimer for more information



ICAO NAME COUNTRY WIND Kt GUST Kt VIS m TEMP/DEW C BARO METAR
CWRU Solander Island Meteorological Canada 45 55 9999 5/0 29.92 CWRU 261200Z AUTO 12045G55KT 05/ RMK AO1 4PAST HR PRESFR 8059 PK WND 12055/1156 SLP987 P0002 T0048 5
YBHM 43 0 9999 26/25 29.68 YBHM 261241Z AUTO 15043KT //// // SCT006 BKN010 OVC020 26/25 Q1005
ENBS Batsfjord Norway 38 0 6000 -1/-3 28.79 ENBS 261150Z 27038KT 6000 -SHSN DRSN SCT015 SCT028 M01/M03 Q0975
ENNE 36 0 9999 6/0 29.97 ENNE 261220Z 27036KT 9999 BKN030 06/00 Q1015 W///S6
ENUG 36 0 9999 3/-2 28.88 ENUG 261220Z AUTO 30036KT 280V340 9999NDV BKN023/// 03/M02 Q0978 W06/S7

Show more